createdAt,value
2023-03-03T00:00:18.694Z,102755.13
2023-03-03T00:03:07.918Z,102753.25
2023-03-03T00:05:53.768Z,102751.47
2023-03-03T00:08:39.968Z,102754.25
2023-03-03T00:11:25.500Z,102754.25
2023-03-03T00:14:37.540Z,102759.41
2023-03-03T00:17:26.087Z,102758.50
2023-03-03T00:20:29.518Z,102758.50
2023-03-03T00:23:26.670Z,102757.72
2023-03-03T00:26:44.866Z,102762.81
2023-03-03T00:29:41.581Z,102761.81
2023-03-03T00:32:32.048Z,102766.06
2023-03-03T00:35:30.630Z,102763.47
2023-03-03T00:38:19.390Z,102759.00
2023-03-03T00:41:20.393Z,102761.66
2023-03-03T00:44:46.416Z,102763.38
2023-03-03T00:47:38.313Z,102767.59
2023-03-03T00:50:28.606Z,102770.19
2023-03-03T00:53:19.085Z,102768.47
2023-03-03T00:56:04.658Z,102767.59
2023-03-03T00:58:51.365Z,102765.03
2023-03-03T01:01:39.513Z,102769.34
2023-03-03T01:04:25.215Z,102763.22
2023-03-03T01:07:10.544Z,102767.50
2023-03-03T01:09:55.902Z,102766.53
2023-03-03T01:12:41.408Z,102764.59
2023-03-03T01:15:27.066Z,102773.16
2023-03-03T01:18:12.981Z,102769.63
2023-03-03T01:20:58.526Z,102769.47
2023-03-03T01:23:44.364Z,102762.50
2023-03-03T01:26:31.615Z,102761.53
2023-03-03T01:29:17.564Z,102771.72
2023-03-03T01:32:03.299Z,102768.00
2023-03-03T01:34:48.845Z,102768.81
2023-03-03T01:37:36.143Z,102768.00
2023-03-03T01:40:25.879Z,102771.53
2023-03-03T01:43:15.676Z,102760.25
2023-03-03T01:46:00.849Z,102764.63
2023-03-03T01:48:46.379Z,102766.22
2023-03-03T01:52:01.104Z,102760.88
2023-03-03T01:54:52.358Z,102761.88
2023-03-03T01:57:44.115Z,102756.78
2023-03-03T02:00:30.637Z,102760.97
2023-03-03T02:03:15.828Z,102766.97
2023-03-03T02:06:06.237Z,102765.97
2023-03-03T02:08:59.421Z,102766.06
2023-03-03T02:11:46.929Z,102757.50
2023-03-03T02:14:32.579Z,102754.03
2023-03-03T02:17:17.864Z,102759.19
2023-03-03T02:20:14.644Z,102761.69
2023-03-03T02:23:10.025Z,102757.25
2023-03-03T02:26:00.443Z,102764.84
2023-03-03T02:28:49.552Z,102767.34
2023-03-03T02:31:35.732Z,102762.28
2023-03-03T02:34:21.527Z,102769.28
2023-03-03T02:37:07.963Z,102769.13
2023-03-03T02:39:55.554Z,102767.34
2023-03-03T02:42:41.411Z,102780.28
2023-03-03T02:45:27.166Z,102774.28
2023-03-03T02:48:12.602Z,102782.06
2023-03-03T02:50:57.772Z,102779.47
2023-03-03T02:53:43.407Z,102778.59
2023-03-03T02:56:29.079Z,102780.19
2023-03-03T02:59:15.142Z,102780.84
2023-03-03T03:02:05.160Z,102774.78
2023-03-03T03:04:50.612Z,102773.81
2023-03-03T03:07:40.760Z,102773.81
2023-03-03T03:10:26.519Z,102778.06
2023-03-03T03:13:12.866Z,102778.00
2023-03-03T03:16:00.833Z,102782.44
2023-03-03T03:18:46.337Z,102782.69
2023-03-03T03:21:32.543Z,102773.34
2023-03-03T03:24:19.332Z,102771.72
2023-03-03T03:27:11.885Z,102772.69
2023-03-03T03:29:57.585Z,102770.03
2023-03-03T03:32:44.437Z,102769.19
2023-03-03T03:35:30.318Z,102780.47
2023-03-03T03:38:16.670Z,102775.09
2023-03-03T03:41:03.527Z,102775.09
2023-03-03T03:43:49.140Z,102780.19
2023-03-03T03:46:35.010Z,102779.94
2023-03-03T03:49:21.688Z,102782.63
2023-03-03T03:52:09.280Z,102771.38
2023-03-03T03:54:54.549Z,102760.06
2023-03-03T03:57:40.093Z,102753.13
2023-03-03T04:00:26.514Z,102761.59
2023-03-03T04:03:16.971Z,102766.69
2023-03-03T04:06:04.337Z,102761.44
2023-03-03T04:08:49.889Z,102767.31
2023-03-03T04:11:38.118Z,102767.31
2023-03-03T04:14:25.422Z,102764.66
2023-03-03T04:17:22.094Z,102762.06
2023-03-03T04:20:08.703Z,102774.22
2023-03-03T04:22:55.091Z,102769.91
2023-03-03T04:25:40.560Z,102780.09
2023-03-03T04:28:32.012Z,102778.94
2023-03-03T04:31:18.466Z,102782.34
2023-03-03T04:34:04.315Z,102777.19
2023-03-03T04:36:50.269Z,102784.13
2023-03-03T04:39:36.148Z,102782.44
2023-03-03T04:42:21.890Z,102781.72
2023-03-03T04:45:08.413Z,102786.97
2023-03-03T04:47:54.768Z,102782.59
2023-03-03T04:50:42.456Z,102792.16
2023-03-03T04:53:28.380Z,102785.19
2023-03-03T04:56:14.271Z,102785.28
2023-03-03T04:58:59.837Z,102787.06
2023-03-03T05:01:46.789Z,102789.66
2023-03-03T05:04:33.994Z,102791.41
2023-03-03T05:07:20.223Z,102791.25
2023-03-03T05:10:08.073Z,102789.66
2023-03-03T05:12:53.417Z,102788.66
2023-03-03T05:15:39.221Z,102786.06
2023-03-03T05:18:26.957Z,102785.97
2023-03-03T05:21:12.586Z,102786.78
2023-03-03T05:23:58.165Z,102786.78
2023-03-03T05:26:43.545Z,102791.97
2023-03-03T05:29:31.590Z,102783.31
2023-03-03T05:32:17.121Z,102793.75
2023-03-03T05:35:03.367Z,102791.97
2023-03-03T05:37:49.889Z,102793.66
2023-03-03T05:40:35.519Z,102793.75
2023-03-03T05:43:21.285Z,102793.75
2023-03-03T05:46:06.893Z,102797.25
2023-03-03T05:48:52.304Z,102792.06
2023-03-03T05:51:37.668Z,102794.75
2023-03-03T05:54:23.123Z,102785.19
2023-03-03T05:57:08.541Z,102789.47
2023-03-03T05:59:53.742Z,102784.31
2023-03-03T06:02:40.014Z,102792.06
2023-03-03T06:05:25.582Z,102792.06
2023-03-03T06:08:11.033Z,102789.56
2023-03-03T06:10:56.698Z,102791.16
2023-03-03T06:13:42.814Z,102791.25
2023-03-03T06:16:28.228Z,102791.25
2023-03-03T06:19:14.734Z,102792.16
2023-03-03T06:22:00.851Z,102795.63
2023-03-03T06:24:46.145Z,102788.72
2023-03-03T06:27:31.388Z,102792.22
2023-03-03T06:30:17.119Z,102799.91
2023-03-03T06:33:02.726Z,102805.16
2023-03-03T06:35:52.894Z,102803.53
2023-03-03T06:38:38.544Z,102801.03
2023-03-03T06:41:23.916Z,102806.22
2023-03-03T06:44:09.351Z,102806.28
2023-03-03T06:46:57.406Z,102814.13
2023-03-03T06:49:42.614Z,102816.72
2023-03-03T06:52:28.264Z,102818.59
2023-03-03T06:55:21.728Z,102822.06
2023-03-03T06:58:36.257Z,102822.06
2023-03-03T07:01:21.918Z,102830.72
2023-03-03T07:04:29.464Z,102828.16
2023-03-03T07:07:24.843Z,102836.88
2023-03-03T07:10:31.498Z,102831.78
2023-03-03T07:13:18.395Z,102831.69
2023-03-03T07:16:11.919Z,102838.41
2023-03-03T07:19:03.337Z,102833.94
2023-03-03T07:21:51.940Z,102837.41
2023-03-03T07:24:37.488Z,102836.53
2023-03-03T07:27:29.059Z,102845.72
2023-03-03T07:30:42.305Z,102851.72
2023-03-03T07:33:31.995Z,102855.19
2023-03-03T07:36:31.299Z,102866.59
2023-03-03T07:39:32.111Z,102866.59
2023-03-03T07:42:28.846Z,102864.91
2023-03-03T07:45:25.778Z,102871.88
2023-03-03T07:48:44.323Z,102875.50
2023-03-03T07:51:39.722Z,102872.13
2023-03-03T07:54:35.122Z,102881.63
2023-03-03T07:57:29.930Z,102879.25
2023-03-03T08:00:15.120Z,102887.19
2023-03-03T08:03:05.588Z,102876.13
2023-03-03T08:05:52.133Z,102876.28
2023-03-03T08:08:37.825Z,102876.44
2023-03-03T08:11:23.225Z,102869.72
2023-03-03T08:14:12.522Z,102880.06
2023-03-03T08:17:00.625Z,102894.72
2023-03-03T08:19:47.203Z,102889.72
2023-03-03T08:22:36.380Z,102893.38
2023-03-03T08:25:21.894Z,102885.69
2023-03-03T08:28:07.224Z,102887.66
2023-03-03T08:31:05.609Z,102897.34
2023-03-03T08:33:59.181Z,102891.44
2023-03-03T08:36:44.485Z,102889.00
2023-03-03T08:39:29.960Z,102891.69
2023-03-03T08:42:16.313Z,102899.53
2023-03-03T08:45:02.047Z,102905.69
2023-03-03T08:47:47.344Z,102897.94
2023-03-03T08:50:32.680Z,102900.59
2023-03-03T08:53:19.803Z,102904.22
2023-03-03T08:56:07.045Z,102897.38
2023-03-03T08:59:02.338Z,102903.59
2023-03-03T09:01:48.228Z,102903.66
2023-03-03T09:04:34.273Z,102909.84
2023-03-03T09:07:19.642Z,102907.16
2023-03-03T09:10:06.044Z,102912.44
2023-03-03T09:12:51.799Z,102909.91
2023-03-03T09:15:38.813Z,102910.16
2023-03-03T09:18:35.714Z,102912.84
2023-03-03T09:21:28.048Z,102913.63
2023-03-03T09:24:27.157Z,102925.13
2023-03-03T09:27:25.539Z,102913.97
2023-03-03T09:30:26.514Z,102920.19
2023-03-03T09:33:44.167Z,102926.53
2023-03-03T09:36:38.985Z,102927.72
2023-03-03T09:39:26.912Z,102927.91
2023-03-03T09:42:31.104Z,102937.59
2023-03-03T09:45:30.755Z,102938.03
2023-03-03T09:48:36.056Z,102938.34
2023-03-03T09:51:52.340Z,102940.47
2023-03-03T09:54:49.269Z,102946.03
2023-03-03T09:58:10.537Z,102935.03
2023-03-03T10:01:26.347Z,102940.78
2023-03-03T10:04:35.482Z,102936.69
2023-03-03T10:07:37.202Z,102938.06
2023-03-03T10:10:46.126Z,102935.38
2023-03-03T10:13:53.000Z,102934.72
2023-03-03T10:16:47.699Z,102941.78
2023-03-03T10:19:37.816Z,102937.84
2023-03-03T10:23:08.831Z,102941.88
2023-03-03T10:26:17.705Z,102946.84
2023-03-03T10:29:23.443Z,102947.44
2023-03-03T10:32:31.521Z,102945.34
2023-03-03T10:35:23.371Z,102953.22
2023-03-03T10:38:28.824Z,102949.66
2023-03-03T10:41:43.659Z,102951.13
2023-03-03T10:45:11.303Z,102957.38
2023-03-03T10:48:18.447Z,102956.41
2023-03-03T10:51:03.646Z,102960.75
2023-03-03T10:54:07.279Z,102975.16
2023-03-03T10:57:11.261Z,102981.50
2023-03-03T11:00:18.204Z,102988.91
2023-03-03T11:03:31.413Z,102996.09
2023-03-03T11:06:41.755Z,103009.94
2023-03-03T11:09:33.196Z,103001.84
2023-03-03T11:12:34.020Z,103000.25
2023-03-03T11:15:34.391Z,103002.91
2023-03-03T11:18:47.791Z,103002.16
2023-03-03T11:21:51.466Z,103001.31
2023-03-03T11:24:51.268Z,103002.03
2023-03-03T11:28:08.837Z,103007.06
2023-03-03T11:31:31.710Z,103004.53
2023-03-03T11:34:36.612Z,103005.34
2023-03-03T11:37:58.867Z,103008.47
2023-03-03T11:41:10.424Z,103012.53
2023-03-03T11:43:59.257Z,103019.16
2023-03-03T11:47:00.747Z,103031.78
2023-03-03T11:50:29.466Z,103030.22
2023-03-03T11:53:32.052Z,103034.88
2023-03-03T11:56:40.625Z,103034.06
2023-03-03T11:59:41.092Z,103041.47
2023-03-03T12:02:48.396Z,103042.91
2023-03-03T12:05:50.325Z,103047.75
2023-03-03T12:08:44.469Z,103049.97
2023-03-03T12:11:52.698Z,103049.88
2023-03-03T12:15:09.785Z,103048.84
2023-03-03T12:17:55.352Z,103043.50
2023-03-03T12:20:55.701Z,103052.56
2023-03-03T12:23:40.989Z,103059.88
2023-03-03T12:26:29.929Z,103055.22
2023-03-03T12:29:51.291Z,103054.84
2023-03-03T12:33:00.455Z,103052.06
2023-03-03T12:36:21.347Z,103044.03
2023-03-03T12:39:34.042Z,103049.97
2023-03-03T12:42:39.260Z,103050.66
2023-03-03T12:45:30.947Z,103053.00
2023-03-03T12:48:43.815Z,103045.38
2023-03-03T12:51:54.506Z,103039.50
2023-03-03T12:54:39.757Z,103026.16
2023-03-03T12:57:48.972Z,103018.88
2023-03-03T13:00:55.106Z,103005.91
2023-03-03T13:04:07.840Z,102999.94
2023-03-03T13:07:03.846Z,102989.22
2023-03-03T13:10:13.879Z,102980.78
2023-03-03T13:13:25.579Z,102978.41
2023-03-03T13:16:24.166Z,102976.81
2023-03-03T13:19:23.848Z,102980.28
2023-03-03T13:22:16.732Z,102971.91
2023-03-03T13:25:18.885Z,102966.28
2023-03-03T13:28:34.830Z,102970.44
2023-03-03T13:31:23.081Z,102969.91
2023-03-03T13:34:27.075Z,102961.19
2023-03-03T13:37:27.700Z,102962.31
2023-03-03T13:40:13.273Z,102947.88
2023-03-03T13:43:10.861Z,102941.03
2023-03-03T13:46:05.946Z,102930.31
2023-03-03T13:49:09.840Z,102923.88
2023-03-03T13:51:55.429Z,102924.44
2023-03-03T13:54:53.021Z,102918.34
2023-03-03T13:57:57.056Z,102921.00
2023-03-03T14:01:09.417Z,102922.63
2023-03-03T14:04:13.526Z,102922.97
2023-03-03T14:07:26.763Z,102917.84
2023-03-03T14:10:25.440Z,102921.13
2023-03-03T14:13:34.107Z,102917.06
2023-03-03T14:16:43.266Z,102917.06
2023-03-03T14:19:34.703Z,102920.47
2023-03-03T14:22:33.449Z,102929.31
2023-03-03T14:25:19.000Z,102930.19
2023-03-03T14:28:14.171Z,102928.47
2023-03-03T14:31:27.798Z,102933.56
2023-03-03T14:34:36.425Z,102933.72
2023-03-03T14:37:30.401Z,102931.56
2023-03-03T14:40:22.757Z,102929.34
2023-03-03T14:43:34.021Z,102935.59
2023-03-03T14:46:30.505Z,102938.41
2023-03-03T14:49:31.596Z,102940.78
2023-03-03T14:52:17.130Z,102935.25
2023-03-03T14:55:31.794Z,102937.03
2023-03-03T14:58:51.202Z,102934.00
2023-03-03T15:01:36.996Z,102935.28
2023-03-03T15:04:27.872Z,102929.59
2023-03-03T15:07:26.454Z,102929.50
2023-03-03T15:10:13.659Z,102922.31
2023-03-03T15:13:13.140Z,102925.91
2023-03-03T15:15:58.802Z,102920.84
2023-03-03T15:19:02.032Z,102917.16
2023-03-03T15:22:01.563Z,102919.28
2023-03-03T15:25:14.580Z,102907.84
2023-03-03T15:28:08.961Z,102901.59
2023-03-03T15:31:55.298Z,102899.41
2023-03-03T15:35:02.023Z,102888.47
2023-03-03T15:38:09.909Z,102889.94
2023-03-03T15:41:14.939Z,102889.16
2023-03-03T15:44:21.161Z,102894.25
2023-03-03T15:47:18.904Z,102891.00
2023-03-03T15:50:35.418Z,102902.69
2023-03-03T15:53:39.172Z,102898.59
2023-03-03T15:56:59.061Z,102900.22
2023-03-03T16:00:08.459Z,102899.94
2023-03-03T16:03:28.153Z,102905.25
2023-03-03T16:06:28.956Z,102909.69
2023-03-03T16:09:36.394Z,102912.75
2023-03-03T16:12:34.296Z,102923.03
2023-03-03T16:15:32.405Z,102926.22
2023-03-03T16:18:21.037Z,102935.19
2023-03-03T16:21:40.139Z,102934.50
2023-03-03T16:24:50.057Z,102941.16
2023-03-03T16:27:41.644Z,102944.41
2023-03-03T16:30:45.879Z,102937.41
2023-03-03T16:33:48.832Z,102943.22
2023-03-03T16:36:46.369Z,102942.44
2023-03-03T16:39:59.428Z,102946.75
2023-03-03T16:42:45.196Z,102938.59
2023-03-03T16:45:37.037Z,102940.78
2023-03-03T16:48:30.964Z,102951.72
2023-03-03T16:51:29.743Z,102957.81
2023-03-03T16:54:24.315Z,102951.44
2023-03-03T16:57:41.987Z,102953.97
2023-03-03T17:00:30.950Z,102949.03
2023-03-03T17:03:40.682Z,102941.50
2023-03-03T17:06:37.807Z,102937.59
2023-03-03T17:09:42.605Z,102939.03
2023-03-03T17:12:52.975Z,102942.31
2023-03-03T17:16:10.049Z,102935.97
2023-03-03T17:19:10.940Z,102945.19
2023-03-03T17:22:12.436Z,102945.25
2023-03-03T17:25:01.107Z,102950.34
2023-03-03T17:28:14.543Z,102967.53
2023-03-03T17:31:18.754Z,102967.38
2023-03-03T17:34:19.874Z,102966.19
2023-03-03T17:37:17.191Z,102970.19
2023-03-03T17:40:29.601Z,102975.91
2023-03-03T17:43:41.313Z,102980.63
2023-03-03T17:46:33.263Z,102973.53
2023-03-03T17:49:41.130Z,102980.13
2023-03-03T17:52:35.634Z,102982.44
2023-03-03T17:55:42.713Z,102992.81
2023-03-03T17:58:42.933Z,102991.81
2023-03-03T18:01:34.916Z,102990.06
2023-03-03T18:04:26.453Z,102993.34
2023-03-03T18:07:35.496Z,103000.03
2023-03-03T18:10:53.422Z,102999.94
2023-03-03T18:13:42.180Z,103000.56
2023-03-03T18:16:52.690Z,103011.72
2023-03-03T18:20:08.996Z,103009.06
2023-03-03T18:22:54.551Z,103019.19
2023-03-03T18:26:01.663Z,103026.88
2023-03-03T18:28:50.889Z,103018.16
2023-03-03T18:31:45.684Z,103026.00
2023-03-03T18:34:35.926Z,103028.59
2023-03-03T18:37:30.845Z,103032.06
2023-03-03T18:40:28.321Z,103032.97
2023-03-03T18:43:38.477Z,103034.56
2023-03-03T18:46:24.350Z,103036.09
2023-03-03T18:49:12.682Z,103041.25
2023-03-03T18:52:26.657Z,103039.53
2023-03-03T18:55:11.924Z,103037.88
2023-03-03T18:58:15.611Z,103042.22
2023-03-03T19:01:13.221Z,103041.34
2023-03-03T19:04:16.485Z,103046.59
2023-03-03T19:07:27.086Z,103043.84
2023-03-03T19:10:21.917Z,103041.34
2023-03-03T19:13:32.484Z,103048.31
2023-03-03T19:16:24.168Z,103050.91
2023-03-03T19:19:16.235Z,103060.25
2023-03-03T19:22:26.796Z,103060.06
2023-03-03T19:25:12.495Z,103067.81
2023-03-03T19:28:17.384Z,103064.34
2023-03-03T19:31:15.963Z,103060.94
2023-03-03T19:34:24.236Z,103061.84
2023-03-03T19:37:09.447Z,103063.75
2023-03-03T19:40:01.151Z,103064.53
2023-03-03T19:43:13.667Z,103064.53
2023-03-03T19:46:19.765Z,103068.09
2023-03-03T19:49:16.803Z,103063.81
2023-03-03T19:52:36.880Z,103066.50
2023-03-03T19:55:32.472Z,103073.34
2023-03-03T19:58:51.927Z,103083.00
2023-03-03T20:02:03.849Z,103077.81
2023-03-03T20:04:53.351Z,103086.47
2023-03-03T20:08:12.491Z,103074.44
2023-03-03T20:11:46.155Z,103076.94
2023-03-03T20:14:51.955Z,103073.34
2023-03-03T20:18:14.488Z,103072.38
2023-03-03T20:21:05.843Z,103069.78
2023-03-03T20:24:00.278Z,103071.59
2023-03-03T20:26:48.871Z,103065.50
2023-03-03T20:29:52.686Z,103073.25
2023-03-03T20:32:57.157Z,103072.38
2023-03-03T20:36:14.945Z,103073.25
2023-03-03T20:39:12.256Z,103075.75
2023-03-03T20:42:06.078Z,103076.75
2023-03-03T20:45:21.941Z,103069.72
2023-03-03T20:48:26.323Z,103069.63
2023-03-03T20:51:35.215Z,103075.66
2023-03-03T20:54:39.524Z,103078.34
2023-03-03T20:57:37.194Z,103086.09
2023-03-03T21:00:51.930Z,103083.44
2023-03-03T21:03:43.516Z,103091.00
2023-03-03T21:06:38.937Z,103098.69
2023-03-03T21:09:31.974Z,103104.75
2023-03-03T21:12:29.437Z,103098.59
2023-03-03T21:15:30.700Z,103096.78
2023-03-03T21:18:27.665Z,103103.59
2023-03-03T21:21:13.296Z,103099.19
2023-03-03T21:23:59.366Z,103102.66
2023-03-03T21:26:44.920Z,103091.63
2023-03-03T21:29:35.768Z,103096.78
2023-03-03T21:32:39.399Z,103095.00
2023-03-03T21:35:25.338Z,103096.63
2023-03-03T21:38:10.621Z,103088.06
2023-03-03T21:41:01.037Z,103096.63
2023-03-03T21:43:49.761Z,103102.88
2023-03-03T21:46:35.357Z,103102.06
2023-03-03T21:49:20.688Z,103100.16
2023-03-03T21:52:06.101Z,103093.16
2023-03-03T21:54:52.227Z,103086.19
2023-03-03T21:57:37.751Z,103084.47
2023-03-03T22:00:23.401Z,103085.41
2023-03-03T22:03:08.862Z,103082.81
2023-03-03T22:05:54.928Z,103088.84
2023-03-03T22:08:40.363Z,103087.16
2023-03-03T22:11:25.794Z,103093.16
2023-03-03T22:14:11.567Z,103080.75
2023-03-03T22:16:57.596Z,103078.34
2023-03-03T22:19:43.417Z,103083.59
2023-03-03T22:22:28.763Z,103073.94
2023-03-03T22:25:14.123Z,103078.25
2023-03-03T22:27:59.591Z,103086.19
2023-03-03T22:30:44.878Z,103080.13
2023-03-03T22:33:30.210Z,103091.34
2023-03-03T22:36:16.734Z,103094.91
2023-03-03T22:39:02.122Z,103090.56
2023-03-03T22:41:47.630Z,103090.47
2023-03-03T22:44:32.997Z,103091.19
2023-03-03T22:47:18.448Z,103092.75
2023-03-03T22:50:04.765Z,103096.97
2023-03-03T22:52:50.273Z,103101.94
2023-03-03T22:55:37.226Z,103105.22
2023-03-03T22:58:26.232Z,103099.19
2023-03-03T23:01:11.638Z,103102.66
2023-03-03T23:03:57.094Z,103107.13
2023-03-03T23:06:43.955Z,103095.97
2023-03-03T23:09:29.379Z,103101.16
2023-03-03T23:12:14.744Z,103103.84
2023-03-03T23:15:00.346Z,103109.88
2023-03-03T23:17:46.608Z,103106.69
2023-03-03T23:20:32.909Z,103102.41
2023-03-03T23:23:18.491Z,103098.94
2023-03-03T23:26:04.101Z,103099.13
2023-03-03T23:28:49.500Z,103097.41
2023-03-03T23:31:35.248Z,103094.72
2023-03-03T23:34:21.174Z,103097.13
2023-03-03T23:37:06.582Z,103098.75
2023-03-03T23:39:51.966Z,103100.59
2023-03-03T23:42:37.274Z,103100.72
2023-03-03T23:45:22.626Z,103099.63
2023-03-03T23:48:07.867Z,103103.19
2023-03-03T23:50:53.078Z,103095.56
2023-03-03T23:53:38.462Z,103099.03
2023-03-03T23:56:23.857Z,103098.13
2023-03-03T23:59:09.301Z,103095.34
